• Join FlightAware (Why Join?)
  • Login
  • US Flag 
12:09PM EDT


 

Airport Tracker/Info


-or-


 

Live Flight TrackerFlight Track Log ✈ UAL907 ✈ 04-May-2013 ✈ EDDM / MUC - KORD

Flight Track Log - Related Links

Times and Time Zones

All times are in EDT time to prevent confusion due to time zone crossing. See the UAL907 flight status page for this flight to view local times or setup timezone preferences in your user account.

Time Position Orientation Groundspeed Altitude Reporting Facility
EDT Latitude Longitude Course Direction KTS MPH feet Rate Location/Type
06:34AM 48.3740 11.7780 265° West 183 211 1,600  Level FlightAware
06:34AM 48.3710 11.7460 262° West 184 212 2,900 2,820 Climbing FlightAware
06:34AM 48.3710 11.7280 270° West 187 215 3,500 2,100 Climbing FlightAware
06:35AM 48.3690 11.6950 265° West 190 219 4,300 1,920 Climbing FlightAware
06:35AM 48.3690 11.6750 270° West 193 222 4,800 1,380 Climbing FlightAware
06:35AM 48.3750 11.6560 295° West 217 250 5,000 960 Climbing FlightAware
06:36AM 48.3840 11.6380 307° West 230 265 5,300 1,920 Climbing FlightAware
06:36AM 48.3990 11.6030 303° West 239 275 6,300 1,560 Climbing FlightAware
06:36AM 48.4140 11.5740 308° West 270 311 6,500 780 Climbing FlightAware
06:37AM 48.4440 11.5500 332° Northwest 313 360 6,900 960 Climbing FlightAware
06:37AM 48.4500 11.5460 336° Northwest 328 377 7,000 1,980 Climbing FlightAware
06:37AM 48.5100 11.5050 336° Northwest 358 412 8,400 1,980 Climbing FlightAware
06:38AM 48.5500 11.4770 335° Northwest 371 427 9,200 2,280 Climbing FlightAware
06:39AM 48.6220 11.4270 335° Northwest 391 450 11,100 2,460 Climbing FlightAware
06:39AM 48.6880 11.3780 334° Northwest 394 453 12,700 2,400 Climbing FlightAware
06:40AM 48.7480 11.3270 331° Northwest 404 465 14,300 2,160 Climbing FlightAware
06:41AM 48.8250 11.2490 326° Northwest 416 479 15,800 1,920 Climbing FlightAware
06:41AM 48.8980 11.1950 334° Northwest 431 496 17,100 1,860 Climbing FlightAware
06:42AM 48.9830 11.1510 341° North 442 509 18,500 1,860 Climbing FlightAware
06:43AM 49.0650 11.1100 342° North 456 525 19,800 1,800 Climbing FlightAware
06:44AM 49.1510 11.0660 341° North 455 524 21,100 1,860 Climbing FlightAware
06:44AM 49.2280 11.0280 342° North 458 527 22,300 1,740 Climbing FlightAware
06:45AM 49.3010 10.9900 341° North 471 542 23,300 1,500 Climbing FlightAware
06:46AM 49.4090 10.9250 339° North 475 547 24,600 1,320 Climbing FlightAware
06:46AM 49.4670 10.8690 328° Northwest 473 544 25,200 1,320 Climbing FlightAware
06:47AM 49.5550 10.7740 325° Northwest 475 547 26,400 1,680 Climbing FlightAware
06:48AM 49.6390 10.6830 325° Northwest 475 547 27,800 1,740 Climbing FlightAware
06:48AM 49.7130 10.6040 325° Northwest 474 545 28,900 1,500 Climbing FlightAware
06:49AM 49.7820 10.4970 315° West 468 539 30,000 720 Climbing FlightAware
06:50AM 49.8300 10.3880 304° West 467 537 30,000  Level FlightAware
06:50AM 49.8780 10.2740 303° West 469 540 30,000  Level FlightAware
06:51AM 49.9300 10.1500 303° West 466 536 30,000  Level FlightAware
06:52AM 49.9750 10.0410 303° West 464 534 30,000  Level FlightAware
06:53AM 50.0270 9.9110 302° West 463 533 30,000  Level FlightAware
06:53AM 50.0600 9.7820 292° West 463 533 30,000 600 Level FlightAware
06:54AM 50.0890 9.6590 290° West 460 529 30,800 1,020 Climbing FlightAware
06:55AM 50.1200 9.5180 289° West 465 535 31,500 840 Climbing FlightAware
06:55AM 50.1480 9.3930 289° West 468 539 32,000 360 Climbing FlightAware
06:56AM 50.1760 9.2650 289° West 467 537 32,000  Level FlightAware
06:57AM 50.2080 9.1230 289° West 464 534 32,000  Level FlightAware
06:57AM 50.2350 8.9970 289° West 465 535 32,000  Level FlightAware
06:58AM 50.2670 8.8480 289° West 465 535 32,000  Level FlightAware
06:59AM 50.2930 8.7270 289° West 463 533 32,000  Level FlightAware
07:00AM 50.3250 8.5790 289° West 463 533 32,000  Level FlightAware
07:00AM 50.3520 8.4520 288° West 462 532 32,000  Level FlightAware
07:01AM 50.3770 8.3300 288° West 460 529 32,000  Level FlightAware
07:02AM 50.4040 8.2000 288° West 460 529 32,000  Level FlightAware
07:02AM 50.4300 8.0740 288° West 456 525 32,000  Level FlightAware
07:03AM 50.4570 7.9420 288° West 456 525 32,000  Level FlightAware
07:04AM 50.4860 7.8030 288° West 455 524 32,000  Level FlightAware
07:04AM 50.5090 7.6900 288° West 454 522 32,000  Level FlightAware
07:05AM 50.5400 7.5340 287° West 453 521 32,000  Level FlightAware
07:06AM 50.5650 7.4080 287° West 453 521 32,000  Level FlightAware
07:07AM 50.5910 7.2810 288° West 453 521 32,000  Level FlightAware
07:07AM 50.6180 7.1430 287° West 454 522 32,000  Level FlightAware
07:08AM 50.6430 7.0130 287° West 456 525 32,000  Level FlightAware
07:09AM 50.6700 6.8690 287° West 456 525 32,000  Level FlightAware
07:09AM 50.6930 6.7440 286° West 456 525 32,000  Level FlightAware
07:10AM 50.7160 6.6180 286° West 455 524 32,000  Level FlightAware
07:11AM 50.7430 6.4730 286° West 455 524 32,000  Level FlightAware
07:11AM 50.7640 6.3550 286° West 454 522 32,000  Level FlightAware
07:12AM 50.7920 6.2020 286° West 454 522 32,000  Level FlightAware
07:13AM 50.8120 6.0870 285° West 454 522 32,000  Level FlightAware
07:14AM 50.8410 5.9270 286° West 454 522 32,000  Level FlightAware
07:14AM 50.8610 5.8160 286° West 453 521 32,000  Level FlightAware
07:15AM 50.8850 5.6770 285° West 454 522 32,000  Level FlightAware
07:16AM 50.9100 5.5300 285° West 454 522 32,000  Level FlightAware
07:16AM 50.9300 5.4170 286° West 454 522 32,000  Level FlightAware
07:17AM 50.9560 5.2680 286° West 453 521 32,000  Level FlightAware
07:18AM 50.9800 5.1230 285° West 455 524 32,000  Level FlightAware
07:18AM 51.0040 4.9840 285° West 455 524 32,000  Level FlightAware
07:19AM 51.0280 4.8390 285° West 455 524 32,000  Level FlightAware
07:20AM 51.0490 4.7090 284° West 455 524 32,000  Level FlightAware
07:21AM 51.0730 4.5690 285° West 454 522 32,000 -1,500 Level FlightAware
07:21AM 51.0732 4.5113 285° West 468 539 30,500  Descending FlightAware UK
07:21AM 51.0940 4.4370 285° West 453 521 32,000 -180 Climbing FlightAware
07:22AM 51.1010 4.3604 285° West 468 539 30,400  Descending FlightAware UK
07:22AM 51.1150 4.3100 285° West 452 520 32,000 1,560 Climbing FlightAware
07:23AM 51.1380 4.1630 284° West 449 517 32,000  Level FlightAware
07:23AM 51.1580 4.0390 284° West 448 516 32,000 -1,320 Level FlightAware
07:24AM 51.1690 3.9394 284° West 466 536 30,500  Descending FlightAware UK
07:24AM 51.1790 3.9060 284° West 448 516 32,000 1,620 Climbing FlightAware
07:25AM 51.2010 3.7680 284° West 448 516 32,000  Level FlightAware
07:25AM 51.2210 3.6400 284° West 448 516 32,000 -1,260 Level FlightAware
07:26AM 51.2325 3.5378 284° West 460 529 30,500  Descending FlightAware UK
07:26AM 51.2410 3.4980 284° West 447 514 32,000  Climbing FlightAware
07:27AM 51.2602 3.3251 284° West 462 532 30,500  Descending FlightAware UK
07:27AM 51.2640 3.3250 284° West 447 514 32,000  Climbing FlightAware
07:28AM 51.2733 3.2284 284° West 462 532 30,500  Descending FlightAware UK
07:28AM 51.2830 3.1790 284° West 448 516 32,000  Climbing FlightAware
07:28AM 51.2915 3.0932 284° West 458 527 30,500  Descending FlightAware UK
07:29AM 51.3020 3.0510 284° West 452 520 32,000 1,620 Climbing FlightAware
07:29AM 51.3340 2.9280 293° West 457 526 32,000 -1,140 Level FlightAware
07:30AM 51.3680 2.7939 293° West 466 536 30,500  Descending FlightAware UK
07:30AM 51.3720 2.7860 293° West 458 527 32,000  Climbing FlightAware
07:30AM 51.3884 2.7195 293° West 468 539 30,500 -2,400 Descending FlightAware UK
07:31AM 51.4039 2.6633 294° West 472 543 30,500 4,500 Level FlightAware UK
07:31AM 51.4060 2.6580 294° West 456 525 32,000  Climbing FlightAware
07:31AM 51.4193 2.6071 294° West 470 541 30,500 -2,280 Descending FlightAware UK
07:31AM 51.4400 2.5325 294° West 470 541 30,500 3,720 Level FlightAware UK
07:31AM 51.4400 2.5370 294° West 456 525 32,000  Climbing FlightAware
07:32AM 51.4608 2.4582 294° West 464 534 30,500 -2,160 Descending FlightAware UK
07:32AM 51.4760 2.4023 294° West 468 539 30,500 4,260 Level FlightAware UK
07:32AM 51.4780 2.3980 294° West 458 527 32,000  Climbing FlightAware
07:32AM 51.5009 2.3095 294° West 474 545 30,500  Descending FlightAware UK
07:33AM 51.5110 2.2750 294° West 459 528 32,000  Climbing FlightAware
07:33AM 51.5261 2.2161 294° West 482 555 30,500 -2,700 Descending FlightAware UK
07:33AM 51.5408 2.1599 293° West 480 552 30,500 3,060 Level FlightAware UK
07:33AM 51.5460 2.1430 293° West 457 526 32,000 -180 Climbing FlightAware
07:34AM 51.5699 2.0478 293° West 476 548 30,400  Descending FlightAware UK
07:34AM 51.5858 1.9868 293° West 455 524 32,000 2,820 Climbing FlightAware ADS-B
07:34AM 51.5947 1.9320 285° West 447 514 32,000  Level FlightAware ADS-B
07:35AM 51.5966 1.8979 275° West 445 512 32,000 -3,000 Level FlightAware ADS-B
07:35AM 51.5943 1.8363 275° West 474 545 30,400  Descending FlightAware UK
07:35AM 51.5979 1.7928 275° West 443 510 32,000  Climbing FlightAware ADS-B
07:36AM 51.5955 1.7181 275° West 474 545 30,400  Descending FlightAware UK
07:36AM 51.5988 1.6846 275° West 442 509 32,000 180 Climbing FlightAware ADS-B
07:36AM 51.5962 1.6206 275° West 472 543 30,500  Descending FlightAware UK
07:36AM 51.6000 1.5980 275° West 442 509 32,000  Climbing FlightAware
07:36AM 51.5966 1.5423 275° West 474 545 30,500  Descending FlightAware UK
07:37AM 51.5999 1.4974 275° West 441 507 32,000  Climbing FlightAware ADS-B
07:37AM 51.5965 1.4443 275° West 470 541 30,500  Descending FlightAware UK
07:38AM 51.6036 1.3302 275° West 443 510 32,000  Climbing FlightAware ADS-B
07:38AM 51.6031 1.2878 275° West 468 539 30,500  Descending FlightAware UK
07:38AM 51.6094 1.2138 275° West 442 509 32,000  Climbing FlightAware ADS-B
07:38AM 51.6088 1.1706 275° West 470 541 30,500  Descending FlightAware UK
07:39AM 51.6141 1.1153 275° West 444 511 32,000 1,860 Climbing FlightAware ADS-B
07:39AM 51.6184 1.0056 274° West 445 512 32,000 -1,740 Level FlightAware ADS-B
07:39AM 51.6173 0.9544 274° West 472 543 30,500  Descending FlightAware UK
07:40AM 51.6220 0.9007 274° West 446 513 32,000  Climbing FlightAware ADS-B
07:40AM 51.6207 0.8356 274° West 472 543 30,500  Descending FlightAware UK
07:40AM 51.6248 0.8002 274° West 446 513 32,000  Climbing FlightAware ADS-B
07:40AM 51.6225 0.7562 274° West 478 550 30,500  Descending FlightAware UK
07:41AM 51.6271 0.6956 274° West 447 514 32,000 1,980 Climbing FlightAware ADS-B
07:41AM 51.6294 0.5947 272° West 446 513 32,000  Level FlightAware ADS-B
07:42AM 51.6314 0.4944 272° West 446 513 32,000  Level FlightAware ADS-B
07:42AM 51.6333 0.3919 272° West 445 512 32,000  Level FlightAware ADS-B
07:43AM 51.6345 0.2753 271° West 443 510 32,000 -1,680 Level FlightAware ADS-B
07:43AM 51.6312 0.2213 271° West 470 541 30,500  Descending FlightAware UK
07:43AM 51.6356 0.1756 271° West 442 509 32,000 2,100 Climbing FlightAware ADS-B
07:44AM 51.6356 0.0728 270° West 441 507 32,000  Level FlightAware ADS-B
07:44AM 51.6354 -0.0256 270° West 438 504 32,000 -1,680 Level FlightAware ADS-B
07:45AM 51.6309 -0.0906 270° West 464 534 30,500  Descending FlightAware UK
07:45AM 51.6357 -0.1236 270° West 437 503 32,000  Climbing FlightAware ADS-B
07:45AM 51.6315 -0.1684 270° West 466 536 30,500  Descending FlightAware UK
07:45AM 51.6359 -0.2217 270° West 438 504 32,000 2,040 Climbing FlightAware ADS-B
07:46AM 51.6351 -0.3216 269° West 441 507 32,000 -1,920 Level FlightAware ADS-B
07:46AM 51.6294 -0.3634 269° West 464 534 30,500  Descending FlightAware UK
07:46AM 51.6331 -0.4239 269° West 443 510 32,000 1,920 Climbing FlightAware ADS-B
07:47AM 51.6308 -0.5246 268° West 445 512 32,000  Level FlightAware ADS-B
07:47AM 51.6273 -0.6252 267° West 448 516 32,000  Level FlightAware ADS-B
07:48AM 51.6228 -0.7263 266° West 450 518 32,000  Level FlightAware ADS-B
07:48AM 51.6181 -0.8292 266° West 453 521 32,000  Level FlightAware ADS-B
07:49AM 51.6143 -0.9036 265° West 454 522 32,000  Level FlightAware ADS-B
07:49AM 51.6138 -0.9283 268° West 451 519 32,000  Level FlightAware ADS-B
07:49AM 51.6198 -1.0295 275° West 449 517 32,000  Level FlightAware ADS-B
07:50AM 51.6261 -1.1327 276° West 452 520 32,000  Level FlightAware ADS-B
07:50AM 51.6325 -1.2337 276° West 454 522 32,000  Level FlightAware ADS-B
07:51AM 51.6388 -1.3368 276° West 458 527 32,000 -1,920 Level FlightAware ADS-B
07:51AM 51.6354 -1.3807 276° West 468 539 30,500  Descending FlightAware UK
07:51AM 51.6453 -1.4411 276° West 459 528 32,000  Climbing FlightAware ADS-B
07:52AM 51.6414 -1.4827 276° West 470 541 30,500  Descending FlightAware UK
07:52AM 51.6520 -1.5477 276° West 460 529 32,000  Climbing FlightAware ADS-B
07:52AM 51.6490 -1.6052 276° West 470 541 30,500  Descending FlightAware UK
07:53AM 51.6587 -1.6540 276° West 462 532 32,000  Climbing FlightAware ADS-B
07:53AM 51.6553 -1.7070 276° West 472 543 30,500  Descending FlightAware UK
07:53AM 51.6654 -1.7570 276° West 462 532 32,000  Climbing FlightAware ADS-B
07:53AM 51.6630 -1.8295 276° West 474 545 30,500  Descending FlightAware UK
07:54AM 51.6730 -1.8700 276° West 464 534 32,000  Climbing FlightAware ADS-B
07:54AM 51.6683 -1.9118 276° West 476 548 30,500 -2,760 Descending FlightAware UK
07:54AM 51.6723 -1.9736 276° West 476 548 30,500 3,900 Level FlightAware UK
07:54AM 51.6814 -1.9994 276° West 463 533 32,000 2,520 Climbing FlightAware ADS-B
07:55AM 51.6883 -2.1055 276° West 463 533 32,000 -1,860 Level FlightAware ADS-B
07:55AM 51.6838 -2.1588 276° West 474 545 30,500  Descending FlightAware UK
07:55AM 51.6965 -2.2304 276° West 463 533 32,000  Climbing FlightAware ADS-B
07:56AM 51.6929 -2.3017 276° West 470 541 30,500  Descending FlightAware UK
07:56AM 51.7028 -2.3357 276° West 462 532 32,000  Climbing FlightAware ADS-B
07:56AM 51.6960 -2.3832 276° West 472 543 30,500  Descending FlightAware UK
07:56AM 51.7068 -2.4440 276° West 463 533 32,000 1,920 Climbing FlightAware ADS-B
07:57AM 51.7106 -2.5497 273° West 462 532 32,000 -1,800 Level FlightAware ADS-B
07:57AM 51.7035 -2.6097 273° West 472 543 30,500  Descending FlightAware UK
07:57AM 51.7144 -2.6562 273° West 460 529 32,000 2,040 Climbing FlightAware ADS-B
07:58AM 51.7183 -2.7644 273° West 459 528 32,000 -1,500 Level FlightAware ADS-B
07:58AM 51.7120 -2.8546 273° West 468 539 30,500  Descending FlightAware UK
07:59AM 51.7234 -2.9023 273° West 458 527 32,000  Climbing FlightAware ADS-B
07:59AM 51.7155 -2.9565 273° West 468 539 30,500  Descending FlightAware UK
08:00AM 51.7300 -3.0770 273° West 456 525 32,000  Climbing FlightAware
08:00AM 51.7216 -3.1391 273° West 466 536 30,500  Descending FlightAware UK
08:00AM 51.7350 -3.2290 273° West 455 524 32,000  Climbing FlightAware
08:01AM 51.7282 -3.3419 273° West 464 534 30,500  Descending FlightAware UK
08:01AM 51.7400 -3.3580 273° West 455 524 32,000  Climbing FlightAware
08:02AM 51.7327 -3.4836 273° West 466 536 30,500  Descending FlightAware UK
08:02AM 51.7450 -3.5200 273° West 455 524 32,000  Climbing FlightAware
08:02AM 51.7365 -3.6058 273° West 464 534 30,500  Descending FlightAware UK
08:02AM 51.7490 -3.6490 273° West 456 525 32,000  Climbing FlightAware
08:03AM 51.7407 -3.7690 273° West 466 536 30,500  Descending FlightAware UK
08:03AM 51.7510 -3.7920 273° West 461 531 32,000  Climbing FlightAware
08:03AM 51.7373 -3.8723 273° West 466 536 30,500  Descending FlightAware UK
08:04AM 51.7480 -3.9380 273° West 461 531 32,000  Climbing FlightAware
08:04AM 51.7335 -4.0168 273° West 468 539 30,500 -2,400 Descending FlightAware UK
08:04AM 51.7323 -4.0786 268° West 468 539 30,500 4,500 Level FlightAware UK
08:04AM 51.7450 -4.0750 268° West 461 531 32,000  Climbing FlightAware
08:05AM 51.7299 -4.2014 268° West 468 539 30,500  Descending FlightAware UK
08:05AM 51.7420 -4.2250 268° West 460 529 32,000  Climbing FlightAware
08:06AM 51.7273 -4.3455 268° West 466 536 30,500  Descending FlightAware UK
08:06AM 51.7390 -4.3750 268° West 461 531 32,000  Climbing FlightAware
08:06AM 51.7252 -4.4484 268° West 466 536 30,500 -2,400 Descending FlightAware UK
08:07AM 51.7239 -4.5103 268° West 466 536 30,500 4,500 Level FlightAware UK
08:07AM 51.7370 -4.5140 268° West 462 532 32,000  Climbing FlightAware
08:07AM 51.7220 -4.5928 268° West 466 536 30,500 -2,280 Descending FlightAware UK
08:07AM 51.7206 -4.6547 268° West 468 539 30,500 3,900 Level FlightAware UK
08:07AM 51.7330 -4.6710 268° West 463 533 32,000  Climbing FlightAware
08:08AM 51.7184 -4.7374 268° West 468 539 30,500 -2,460 Descending FlightAware UK
08:08AM 51.7168 -4.7994 268° West 468 539 30,500 4,260 Level FlightAware UK
08:08AM 51.7300 -4.8090 268° West 462 532 32,000  Climbing FlightAware
08:08AM 51.7153 -4.8614 268° West 468 539 30,500 -2,340 Descending FlightAware UK
08:09AM 51.7133 -4.9434 268° West 468 539 30,500 3,000 Level FlightAware UK
08:09AM 51.7260 -4.9610 268° West 462 532 32,000  Climbing FlightAware
08:09AM 51.7112 -5.0259 268° West 466 536 30,500 -2,520 Descending FlightAware UK
08:09AM 51.7096 -5.0878 268° West 466 536 30,500 4,080 Level FlightAware UK
08:09AM 51.7230 -5.1020 268° West 463 533 32,000  Climbing FlightAware
08:10AM 51.7076 -5.1704 268° West 466 536 30,500 -2,400 Descending FlightAware UK
08:10AM 51.7060 -5.2324 268° West 466 536 30,500 4,500 Level FlightAware UK
08:10AM 51.7190 -5.2400 268° West 462 532 32,000  Climbing FlightAware
08:10AM 51.7035 -5.3150 268° West 464 534 30,500 -2,280 Descending FlightAware UK
08:11AM 51.7016 -5.3769 267° West 464 534 30,500 3,900 Level FlightAware UK
08:11AM 51.7150 -5.3910 267° West 462 532 32,000  Climbing FlightAware
08:11AM 51.6991 -5.4595 267° West 464 534 30,500 -2,460 Descending FlightAware UK
08:11AM 51.6971 -5.5214 267° West 466 536 30,500 4,260 Level FlightAware UK
08:11AM 51.7110 -5.5280 267° West 462 532 32,000  Climbing FlightAware
08:12AM 51.6951 -5.5833 267° West 466 536 30,500 -2,760 Descending FlightAware UK
08:12AM 51.6931 -5.6452 267° West 466 536 30,500 3,600 Level FlightAware UK
08:12AM 51.7060 -5.6660 267° West 463 533 32,000  Climbing FlightAware
08:12AM 51.6905 -5.7277 267° West 464 534 30,500 -2,580 Descending FlightAware UK
08:13AM 51.6883 -5.7897 267° West 466 536 30,500 3,180 Level FlightAware UK
08:13AM 51.7010 -5.8170 267° West 462 532 32,000  Climbing FlightAware
08:13AM 51.6847 -5.8929 267° West 466 536 30,500 -2,400 Descending FlightAware UK
08:14AM 51.6827 -5.9548 267° West 468 539 30,500 4,500 Level FlightAware UK
08:14AM 51.6960 -5.9510 267° West 463 533 32,000  Climbing FlightAware
08:14AM 51.6805 -6.0160 267° West 468 539 30,500 -2,700 Descending FlightAware UK
08:14AM 51.6782 -6.0779 267° West 470 541 30,500 3,060 Level FlightAware UK
08:14AM 51.6900 -6.1140 267° West 463 533 32,000  Climbing FlightAware
08:15AM 51.6743 -6.1811 267° West 468 539 30,500 -2,460 Descending FlightAware UK
08:15AM 51.6720 -6.2430 267° West 466 536 30,500 4,260 Level FlightAware UK
08:15AM 51.6850 -6.2490 267° West 464 534 32,000  Climbing FlightAware
08:15AM 51.6696 -6.3050 267° West 466 536 30,500 -2,760 Descending FlightAware UK
08:16AM 51.6672 -6.3670 266° West 464 534 30,500 3,600 Level FlightAware UK
08:16AM 51.6800 -6.3880 266° West 464 534 32,000  Climbing FlightAware
08:16AM 51.6638 -6.4497 266° West 466 536 30,500 -2,580 Descending FlightAware UK
08:16AM 51.6612 -6.5117 266° West 466 536 30,500 3,180 Level FlightAware UK
08:16AM 51.6730 -6.5400 266° West 466 536 32,000  Climbing FlightAware
08:17AM 51.6569 -6.6152 266° West 466 536 30,500 -2,400 Descending FlightAware UK
08:17AM 51.6542 -6.6774 266° West 468 539 30,500 4,500 Level FlightAware UK
08:17AM 51.6680 -6.6800 266° West 466 536 32,000  Climbing FlightAware
08:17AM 51.6515 -6.7396 266° West 468 539 30,500 -2,700 Descending FlightAware UK
08:18AM 51.6491 -6.8019 266° West 468 539 30,500 3,720 Level FlightAware UK
08:18AM 51.6620 -6.8180 266° West 466 536 32,000  Climbing FlightAware
08:18AM 51.6455 -6.8848 266° West 470 541 30,500 -2,520 Descending FlightAware UK
08:18AM 51.6427 -6.9470 266° West 468 539 30,500 3,300 Level FlightAware UK
08:18AM 51.6540 -6.9770 266° West 465 535 32,000  Climbing FlightAware
08:19AM 51.6391 -7.0298 266° West 468 539 30,500 -2,760 Descending FlightAware UK
08:19AM 51.6363 -7.0917 266° West 466 536 30,500 3,600 Level FlightAware UK
08:19AM 51.6480 -7.1120 266° West 465 535 32,000  Climbing FlightAware
08:19AM 51.6327 -7.1737 266° West 466 536 30,500 -2,580 Descending FlightAware UK
08:20AM 51.6299 -7.2357 266° West 468 539 30,500 3,180 Level FlightAware UK
08:20AM 51.6410 -7.2710 266° West 465 535 32,000  Climbing FlightAware
08:20AM 51.6253 -7.3390 266° West 466 536 30,500 -2,400 Descending FlightAware UK
08:21AM 51.6226 -7.4009 266° West 468 539 30,500 4,500 Level FlightAware UK
08:21AM 51.6340 -7.4020 266° West 466 536 32,000  Climbing FlightAware
08:21AM 51.6195 -7.4629 266° West 470 541 30,500 -2,700 Descending FlightAware UK
08:21AM 51.6164 -7.5250 265° West 470 541 30,500 4,680 Level FlightAware UK
08:21AM 51.6290 -7.5220 265° West 466 536 32,000  Climbing FlightAware
08:21AM 51.6133 -7.5870 265° West 470 541 30,500 -2,580 Descending FlightAware UK
08:22AM 51.6102 -7.6490 265° West 470 541 30,500  Level FlightAware UK
08:22AM 51.6070 -7.7109 265° West 470 541 30,500  Level FlightAware UK
08:22AM 51.6039 -7.7728 265° West 466 536 30,500  Level FlightAware UK
08:23AM 51.6006 -7.8346 265° West 466 536 30,500 4,680 Level FlightAware UK
08:23AM 51.6120 -7.8350 265° West 464 534 32,000  Climbing FlightAware
08:23AM 51.5964 -7.9169 265° West 466 536 30,500 -2,220 Descending FlightAware UK
08:23AM 51.5931 -7.9787 265° West 466 536 30,500  Level FlightAware UK
08:24AM 51.5898 -8.0404 265° West 468 539 30,500 3,720 Level FlightAware UK
08:24AM 51.6000 -8.0550 265° West 465 535 32,000  Climbing FlightAware
08:24AM 51.5854 -8.1229 265° West 466 536 30,500 -2,520 Descending FlightAware UK
08:24AM 51.5820 -8.1848 265° West 466 536 30,500 3,300 Level FlightAware UK
08:24AM 51.5920 -8.2100 265° West 465 535 32,000  Climbing FlightAware
08:25AM 51.5773 -8.2673 265° West 466 536 30,500 -2,760 Descending FlightAware UK
08:25AM 51.5738 -8.3286 265° West 466 536 30,500 3,000 Level FlightAware UK
08:25AM 51.5830 -8.3570 265° West 466 536 32,000  Climbing FlightAware
08:26AM 51.5670 -8.4318 265° West 466 536 30,500 -2,520 Descending FlightAware UK
08:26AM 51.5632 -8.4938 264° West 466 536 30,500 4,080 Level FlightAware UK
08:26AM 51.5750 -8.4920 264° West 466 536 32,000  Climbing FlightAware
08:26AM 51.5582 -8.5765 264° West 466 536 30,500 -2,400 Descending FlightAware UK
08:27AM 51.5544 -8.6386 264° West 466 536 30,500 3,600 Level FlightAware UK
08:27AM 51.5650 -8.6450 264° West 468 539 32,000  Climbing FlightAware
08:27AM 51.5495 -8.7214 264° West 468 539 30,500 -2,580 Descending FlightAware UK
08:27AM 51.5458 -8.7838 265° West 472 543 30,500 3,900 Level FlightAware UK
08:27AM 51.5560 -8.7880 265° West 470 541 32,000  Climbing FlightAware
08:28AM 51.5407 -8.8669 265° West 472 543 30,500 -2,460 Descending FlightAware UK
08:28AM 51.5369 -8.9293 264° West 470 541 30,500 4,260 Level FlightAware UK
08:28AM 51.5480 -8.9270 264° West 470 541 32,000  Climbing FlightAware
08:28AM 51.5333 -8.9917 264° West 470 541 30,500  Descending FlightAware UK
08:29AM 51.5380 -9.0820 264° West 469 540 32,000 1,260 Climbing FlightAware
08:29AM 51.5290 -9.2230 264° West 468 539 32,000  Level FlightAware
08:30AM 51.5180 -9.3770 264° West 468 539 32,000  Level FlightAware
08:31AM 51.5090 -9.5130 264° West 468 539 32,000  Level FlightAware
08:32AM 51.4990 -9.6680 264° West 467 537 32,000  Level FlightAware
08:32AM 51.4890 -9.8090 264° West 468 539 32,000  Level FlightAware
08:33AM 51.4790 -9.9450 263° West 468 539 32,000  Level FlightAware
08:34AM 51.4680 -10.0990 264° West 468 539 32,000  Level FlightAware
08:34AM 51.4580 -10.2370 263° West 467 537 32,000  Level FlightAware
08:35AM 51.4460 -10.3940 263° West 467 537 32,000  Level FlightAware
08:36AM 51.4350 -10.5300 263° West 466 536 32,000  Level FlightAware
08:36AM 51.4250 -10.6690 263° West 467 537 32,000  Level FlightAware
08:37AM 51.4120 -10.8320 263° West 468 539 32,000  Level FlightAware
08:38AM 51.4010 -10.9620 262° West 468 539 32,000  Level FlightAware
08:38AM 51.3910 -11.0860 263° West 468 539 32,000  Level FlightAware
08:39AM 51.3800 -11.2030 261° West 468 539 32,000  Level FlightAware
08:40AM 51.3670 -11.3830 263° West 468 539 32,000  Level FlightAware
08:41AM 51.3550 -11.5210 262° West 468 539 32,000  Level FlightAware
08:41AM 51.3440 -11.6380 261° West 468 539 32,000  Level FlightAware
08:42AM 51.3320 -11.7830 263° West 468 539 32,000  Level FlightAware
08:43AM 51.3210 -11.9000 261° West 468 539 32,000  Level FlightAware
08:43AM 51.3110 -12.0170 262° West 468 539 32,000  Level FlightAware
08:44AM 51.3010 -12.1330 262° West 468 539 32,000  Level FlightAware
08:45AM 51.2910 -12.2500 262° West 468 539 32,000  Level FlightAware
08:45AM 51.2800 -12.3670 261° West 468 539 32,000  Level FlightAware
08:46AM 51.2670 -12.5120 262° West 468 539 32,000  Level FlightAware
08:47AM 51.2570 -12.6290 262° West 468 539 32,000  Level FlightAware
08:48AM 51.2470 -12.7450 262° West 468 539 32,000  Level FlightAware
08:48AM 51.2370 -12.8620 262° West 468 539 32,000  Level FlightAware
08:49AM 51.2240 -13.0070 262° West 468 539 32,000  Level FlightAware
08:50AM 51.2140 -13.1230 262° West 468 539 32,000  Level FlightAware
08:52AM 51.2862 -13.4348 290° West  Level Estimated
08:53AM 51.3259 -13.6084 290° West  Level Estimated
08:54AM 51.3653 -13.7823 290° West  Level Estimated
08:55AM 51.4045 -13.9566 290° West  Level Estimated
08:56AM 51.4435 -14.1311 290° West  Level Estimated
08:57AM 51.4822 -14.3059 290° West  Level Estimated
08:58AM 51.5206 -14.4810 289° West  Level Estimated
08:59AM 51.5588 -14.6564 289° West  Level Estimated
09:00AM 51.5967 -14.8321 289° West  Level Estimated
09:01AM 51.6343 -15.0081 289° West  Level Estimated
09:02AM 51.6717 -15.1844 289° West  Level Estimated
09:03AM 51.7088 -15.3610 289° West  Level Estimated
09:04AM 51.7457 -15.5379 289° West  Level Estimated
09:05AM 51.7823 -15.7150 289° West  Level Estimated
09:06AM 51.8186 -15.8925 288° West  Level Estimated
09:07AM 51.8600 -16.0968 288° West  Level Estimated
09:08AM 51.9011 -16.3014 288° West  Level Estimated
09:09AM 51.9417 -16.5065 288° West  Level Estimated
09:10AM 51.9821 -16.7118 288° West  Level Estimated
09:11AM 52.0221 -16.9176 288° West  Level Estimated
09:12AM 52.0617 -17.1238 287° West  Level Estimated
09:13AM 52.1009 -17.3302 287° West  Level Estimated
09:14AM 52.1399 -17.5371 287° West  Level Estimated
09:15AM 52.1784 -17.7443 287° West  Level Estimated
09:16AM 52.2166 -17.9519 287° West  Level Estimated
09:17AM 52.2544 -18.1598 287° West  Level Estimated
09:18AM 52.2918 -18.3681 286° West  Level Estimated
09:19AM 52.3289 -18.5768 286° West  Level Estimated
09:20AM 52.3656 -18.7858 286° West  Level Estimated
09:21AM 52.4020 -18.9951 286° West  Level Estimated
09:22AM 52.4379 -19.2048 286° West  Level Estimated
09:23AM 52.4735 -19.4148 286° West  Level Estimated
09:24AM 52.5088 -19.6252 285° West  Level Estimated
09:25AM 52.5436 -19.8358 285° West  Level Estimated
09:26AM 52.5781 -20.0469 285° West  Level Estimated
09:27AM 52.6122 -20.2582 285° West  Level Estimated
09:28AM 52.6459 -20.4699 285° West  Level Estimated
09:29AM 52.6793 -20.6819 285° West  Level Estimated
09:30AM 52.7122 -20.8942 284° West  Level Estimated
09:31AM 52.7448 -21.1069 284° West  Level Estimated
09:32AM 52.7770 -21.3198 284° West  Level Estimated
09:33AM 52.8089 -21.5331 284° West  Level Estimated
09:34AM 52.8403 -21.7467 284° West  Level Estimated
09:35AM 52.8714 -21.9606 284° West  Level Estimated
09:36AM 52.9021 -22.1748 283° West  Level Estimated
09:37AM 52.9323 -22.3893 283° West  Level Estimated
09:37AM 50.0000 -20.0000 274° West 491 565 32,000  Level ETMS Enhanced Traffic Management System
09:38AM 52.9622 -22.6041 283° West  Level Estimated
09:39AM 52.9918 -22.8192 283° West  Level Estimated
09:40AM 53.0209 -23.0346 283° West  Level Estimated
09:41AM 53.0496 -23.2503 283° West  Level Estimated
09:42AM 53.0780 -23.4662 282° West  Level Estimated
09:43AM 50.1051 -24.2542 271° West 491 565 32,000  Level FlightAware Transoceanic
09:44AM 50.1063 -24.4673 270° West 491 565 32,000  Level FlightAware Transoceanic
09:45AM 50.1071 -24.6804 270° West 491 565 32,000  Level FlightAware Transoceanic
09:46AM 50.1075 -24.8935 270° West 491 565 32,000  Level FlightAware Transoceanic
09:47AM 50.1075 -25.1065 270° West 491 565 32,000  Level FlightAware Transoceanic
09:48AM 50.1071 -25.3196 270° West 491 565 32,000  Level FlightAware Transoceanic
09:49AM 50.1063 -25.5327 270° West 491 565 32,000  Level FlightAware Transoceanic
09:50AM 50.1051 -25.7458 269° West 491 565 32,000  Level FlightAware Transoceanic
09:51AM 50.1036 -25.9588 269° West 491 565 32,000  Level FlightAware Transoceanic
09:52AM 50.1016 -26.1719 269° West 491 565 32,000  Level FlightAware Transoceanic
09:53AM 50.0993 -26.3849 269° West 491 565 32,000  Level FlightAware Transoceanic
09:54AM 50.0966 -26.5979 269° West 491 565 32,000  Level FlightAware Transoceanic
09:55AM 50.0934 -26.8109 269° West 491 565 32,000  Level FlightAware Transoceanic
09:56AM 50.0899 -27.0238 268° West 491 565 32,000  Level FlightAware Transoceanic
09:57AM 50.0860 -27.2367 268° West 491 565 32,000  Level FlightAware Transoceanic
09:58AM 50.0817 -27.4496 268° West 491 565 32,000  Level FlightAware Transoceanic
09:59AM 50.0771 -27.6624 268° West 491 565 32,000  Level FlightAware Transoceanic
10:00AM 50.0720 -27.8752 268° West 491 565 32,000  Level FlightAware Transoceanic
10:01AM 50.0666 -28.0880 268° West 491 565 32,000  Level FlightAware Transoceanic
10:02AM 50.0607 -28.3007 267° West 491 565 32,000  Level FlightAware Transoceanic
10:03AM 50.0545 -28.5133 267° West 491 565 32,000  Level FlightAware Transoceanic
10:04AM 50.0479 -28.7259 267° West 491 565 32,000  Level FlightAware Transoceanic
10:05AM 50.0409 -28.9384 267° West 491 565 32,000  Level FlightAware Transoceanic
10:06AM 50.0335 -29.1509 267° West 491 565 32,000  Level FlightAware Transoceanic
10:07AM 50.0257 -29.3633 267° West 491 565 32,000  Level FlightAware Transoceanic
10:08AM 50.0175 -29.5756 266° West 491 565 32,000  Level FlightAware Transoceanic
10:09AM 50.0089 -29.7878 266° West 491 565 32,000  Level FlightAware Transoceanic
10:10AM 50.0003 -29.9941 266° West  Level FlightAware Approximate
10:11AM 49.9910 -30.2002 266° West  Level FlightAware Approximate
10:12AM 49.9708 -30.1786 256° West  Level FlightAware Approximate
10:13AM 49.9394 -30.3685 256° West  Level FlightAware Approximate
10:14AM 49.9077 -30.5582 256° West  Level FlightAware Approximate
10:15AM 49.8758 -30.7476 255° West  Level FlightAware Approximate
10:16AM 49.8434 -30.9367 255° West  Level FlightAware Approximate
10:17AM 49.8108 -31.1256 255° West  Level FlightAware Approximate
10:18AM 49.7783 -31.3144 256° West  Level FlightAware Approximate
10:19AM 49.7477 -31.5038 256° West  Level FlightAware Approximate
10:20AM 49.7167 -31.6930 256° West  Level FlightAware Approximate
10:21AM 49.6855 -31.8820 256° West  Level FlightAware Approximate
10:22AM 49.6539 -32.0707 256° West  Level FlightAware Approximate
10:23AM 49.6220 -32.2591 255° West  Level FlightAware Approximate
10:24AM 49.5898 -32.4473 255° West  Level FlightAware Approximate
10:25AM 49.5574 -32.6353 255° West  Level FlightAware Approximate
10:26AM 49.5246 -32.8230 255° West  Level FlightAware Approximate
10:27AM 49.4915 -33.0105 255° West  Level FlightAware Approximate
10:28AM 49.4581 -33.1977 255° West  Level FlightAware Approximate
10:29AM 49.4244 -33.3846 255° West  Level FlightAware Approximate
10:30AM 49.3904 -33.5713 254° West  Level FlightAware Approximate
10:31AM 49.3561 -33.7577 254° West  Level FlightAware Approximate
10:32AM 49.3215 -33.9439 254° West  Level FlightAware Approximate
10:33AM 49.2866 -34.1298 254° West  Level FlightAware Approximate
10:34AM 49.2514 -34.3154 254° West  Level FlightAware Approximate
10:35AM 49.2159 -34.5008 254° West  Level FlightAware Approximate
10:36AM 49.1801 -34.6859 254° West  Level FlightAware Approximate
10:37AM 49.1440 -34.8708 253° West  Level FlightAware Approximate
10:38AM 49.1076 -35.0553 253° West  Level FlightAware Approximate
10:39AM 49.0710 -35.2396 253° West  Level FlightAware Approximate
10:40AM 49.0340 -35.4236 253° West  Level FlightAware Approximate
10:41AM 48.9967 -35.6074 253° West  Level FlightAware Approximate
10:42AM 48.9592 -35.7909 253° West  Level FlightAware Approximate
10:43AM 48.9213 -35.9741 253° West  Level FlightAware Approximate
10:44AM 48.8832 -36.1570 252° West  Level FlightAware Approximate
10:45AM 48.8448 -36.3396 252° West  Level FlightAware Approximate
10:46AM 48.8061 -36.5220 252° West  Level FlightAware Approximate
10:47AM 48.7671 -36.7041 252° West  Level FlightAware Approximate
10:48AM 48.7278 -36.8858 252° West  Level FlightAware Approximate
10:49AM 48.6882 -37.0674 252° West  Level FlightAware Approximate
10:50AM 48.6484 -37.2486 252° West  Level FlightAware Approximate
10:51AM 48.6083 -37.4295 252° West  Level FlightAware Approximate
10:52AM 48.5678 -37.6102 251° West  Level FlightAware Approximate
10:53AM 48.5271 -37.7905 251° West  Level FlightAware Approximate
10:54AM 48.4862 -37.9706 251° West  Level FlightAware Approximate
10:55AM 48.4449 -38.1504 251° West  Level FlightAware Approximate
10:56AM 48.4034 -38.3298 251° West  Level FlightAware Approximate
10:57AM 48.3615 -38.5090 251° West  Level FlightAware Approximate
10:58AM 48.3194 -38.6879 251° West  Level FlightAware Approximate
10:59AM 48.2771 -38.8665 250° West  Level FlightAware Approximate
11:00AM 48.2344 -39.0448 250° West  Level FlightAware Approximate
11:01AM 48.1915 -39.2228 250° West  Level FlightAware Approximate
11:02AM 48.1482 -39.4008 250° West  Level FlightAware Approximate
11:03AM 48.1047 -39.5786 250° West  Level FlightAware Approximate
11:04AM 48.0608 -39.7560 250° West  Level FlightAware Approximate
11:05AM 48.0168 -39.9331 250° West  Level FlightAware Approximate
11:06AM 47.9821 -40.1142 257° West  Level FlightAware Approximate
11:07AM 47.9530 -40.2979 257° West  Level FlightAware Approximate
11:08AM 47.9236 -40.4814 257° West  Level FlightAware Approximate
11:09AM 47.8940 -40.6646 256° West  Level FlightAware Approximate
11:10AM 47.8640 -40.8476 256° West  Level FlightAware Approximate
11:11AM 47.8338 -41.0305 256° West  Level FlightAware Approximate
11:12AM 47.8032 -41.2131 256° West  Level FlightAware Approximate
11:13AM 47.7724 -41.3955 256° West  Level FlightAware Approximate
11:14AM 47.7413 -41.5776 256° West  Level FlightAware Approximate
11:15AM 47.7099 -41.7596 256° West  Level FlightAware Approximate
11:16AM 47.6782 -41.9413 256° West  Level FlightAware Approximate
11:17AM 47.6462 -42.1229 255° West  Level FlightAware Approximate
11:18AM 47.6140 -42.3042 255° West  Level FlightAware Approximate
11:19AM 47.5814 -42.4852 255° West  Level FlightAware Approximate
11:20AM 47.5501 -42.6667 256° West  Level FlightAware Approximate
11:21AM 47.5198 -42.8484 256° West  Level FlightAware Approximate
11:22AM 47.4893 -43.0299 256° West  Level FlightAware Approximate
11:23AM 47.4584 -43.2112 256° West  Level FlightAware Approximate
11:24AM 47.4272 -43.3922 256° West  Level FlightAware Approximate
11:25AM 47.3958 -43.5731 256° West  Level FlightAware Approximate
11:26AM 47.3641 -43.7537 256° West  Level FlightAware Approximate
11:27AM 47.3311 -43.9338 255° West  Level FlightAware Approximate
11:28AM 47.2971 -44.1133 254° West  Level FlightAware Approximate
11:29AM 47.2627 -44.2925 254° West  Level FlightAware Approximate
11:30AM 47.2281 -44.4715 254° West  Level FlightAware Approximate
11:31AM 47.1933 -44.6503 254° West  Level FlightAware Approximate
11:32AM 47.1581 -44.8289 254° West  Level FlightAware Approximate
11:33AM 47.1227 -45.0072 254° West  Level FlightAware Approximate
11:34AM 47.0870 -45.1853 254° West  Level FlightAware Approximate
11:35AM 47.0510 -45.3632 254° West  Level FlightAware Approximate
11:36AM 47.0147 -45.5407 253° West  Level FlightAware Approximate
11:37AM 46.9782 -45.7181 253° West  Level FlightAware Approximate
11:38AM 46.9414 -45.8952 253° West  Level FlightAware Approximate
11:39AM 46.9043 -46.0721 253° West  Level FlightAware Approximate
11:40AM 46.8670 -46.2487 253° West  Level FlightAware Approximate
11:41AM 46.8294 -46.4251 253° West  Level FlightAware Approximate
11:42AM 46.7915 -46.6012 253° West  Level FlightAware Approximate
11:43AM 46.7533 -46.7771 252° West  Level FlightAware Approximate
11:44AM 46.7149 -46.9528 252° West  Level FlightAware Approximate
11:45AM 46.6762 -47.1282 252° West  Level FlightAware Approximate
11:46AM 46.6372 -47.3033 252° West  Level FlightAware Approximate
11:47AM 46.5980 -47.4782 252° West  Level FlightAware Approximate
11:48AM 46.5585 -47.6528 252° West  Level FlightAware Approximate
11:49AM 46.5187 -47.8272 252° West  Level FlightAware Approximate
11:50AM 46.4787 -48.0013 252° West  Level FlightAware Approximate
11:50AM 46.0000 -49.9667 251° West 500 575 32,000  Level Gander Center
11:51AM 46.4384 -48.1752 251° West  Level FlightAware Approximate
11:51AM 45.9667 -50.1500 255° West 500 575 32,000  Level Gander Center
11:52AM 46.3978 -48.3488 251° West  Level FlightAware Approximate
11:52AM 45.9833 -50.3667 276° West 490 564 33,700  Level Gander Center
11:53AM 46.3570 -48.5221 251° West  Level FlightAware Approximate
11:54AM 46.3159 -48.6952 251° West  Level FlightAware Approximate
11:55AM 46.2742 -48.8696 251° West  Level FlightAware Approximate
11:57AM 46.1340 -51.4980 276° West 483 556 36,000  Level FlightAware
11:58AM 46.1510 -51.6410 280° West 483 556 36,000  Level FlightAware
11:59AM 46.1640 -51.7560 279° West 483 556 36,000  Level FlightAware
12:00PM 46.1760 -51.8640 279° West 483 556 36,000  Level FlightAware
12:00PM 46.1970 -52.0400 280° West 484 557 36,000  Level FlightAware
12:01PM 46.2160 -52.2090 279° West 483 556 36,000  Level FlightAware
12:02PM 46.2280 -52.3180 279° West 483 556 36,000  Level FlightAware
12:03PM 46.2460 -52.4790 279° West 483 556 36,000  Level FlightAware
12:03PM 46.2620 -52.6180 280° West 482 555 36,000  Level FlightAware
12:04PM 46.2760 -52.7510 279° West 482 555 36,000  Level FlightAware
12:05PM 46.2880 -52.8640 279° West 482 555 36,000  Level FlightAware
12:05PM 46.3060 -53.0310 279° West 482 555 36,000  Level FlightAware
12:06PM 46.3190 -53.1570 279° West 483 556 36,000  Level FlightAware
12:07PM 46.3320 -53.2860 278° West 483 556 36,000  Level FlightAware
12:08PM 46.3450 -53.4320 277° West 484 557 36,000  Level FlightAware
12:08PM 46.3570 -53.5600 278° West 484 557 36,000  Level FlightAware
12:09PM 46.3700 -53.7000 278° West 484 557 36,000  Level FlightAware
12:10PM 46.3820 -53.8280 278° West 484 557 36,000  Level FlightAware
12:10PM 46.3950 -53.9580 278° West 484 557 36,000  Level FlightAware
12:11PM 46.4080 -54.1010 278° West 485 558 36,000  Level FlightAware
12:12PM 46.4190 -54.2190 278° West 485 558 36,000  Level FlightAware
12:12PM 46.4340 -54.3750 278° West 484 557 36,000  Level FlightAware
12:13PM 46.4430 -54.4820 277° West 484 557 36,000  Level FlightAware
12:14PM 46.4520 -54.5910 277° West 484 557 36,000  Level FlightAware
12:14PM 46.4660 -54.7220 279° West 36,000  Level FlightAware
12:15PM 46.4820 -54.9050 277° West 481 554 36,000  Level FlightAware
12:16PM 46.4950 -55.0450 278° West 480 552 36,000  Level FlightAware
12:17PM 46.5060 -55.1750 277° West 480 552 36,000  Level FlightAware
12:17PM 46.5160 -55.3010 277° West 480 552 36,000  Level FlightAware
12:18PM 46.5270 -55.4320 277° West 480 552 36,000  Level FlightAware
12:19PM 46.5380 -55.5620 277° West 480 552 36,000  Level FlightAware
12:19PM 46.5490 -55.6910 277° West 480 552 36,000  Level FlightAware
12:20PM 46.5600 -55.8330 276° West 480 552 36,000  Level FlightAware
12:21PM 46.5690 -55.9520 276° West 479 551 36,000  Level FlightAware
12:21PM 46.5800 -56.0860 277° West 479 551 36,000  Level FlightAware
12:22PM 46.5920 -56.2390 277° West 477 549 36,000  Level FlightAware
12:23PM 46.6010 -56.3630 276° West 477 549 36,000  Level FlightAware
12:24PM 46.6110 -56.4960 276° West 476 548 36,000  Level FlightAware
12:24PM 46.6200 -56.6220 276° West 476 548 36,000  Level FlightAware
12:25PM 46.6350 -56.8160 276° West 476 548 36,000  Level FlightAware
12:26PM 46.6440 -56.9500 276° West 477 549 36,000  Level FlightAware
12:27PM 46.6520 -57.0610 276° West 477 549 36,000  Level FlightAware
12:27PM 46.6620 -57.2120 276° West 478 550 36,000  Level FlightAware
12:28PM 46.6690 -57.3200 275° West 479 551 36,000  Level FlightAware
12:29PM 46.6770 -57.4540 275° West 479 551 36,000  Level FlightAware
12:29PM 46.6840 -57.5630 275° West 479 551 36,000  Level FlightAware
12:30PM 46.6910 -57.6730 275° West 479 551 36,000  Level FlightAware
12:31PM 46.6990 -57.8100 275° West 479 551 36,000  Level FlightAware
12:32PM 46.7050 -57.9190 275° West 479 551 36,000  Level FlightAware
12:32PM 46.7230 -58.1700 276° West 482 555 36,000  Level FlightAware
12:33PM 46.7280 -58.2730 274° West 482 555 36,000  Level FlightAware
12:34PM 46.7380 -58.4340 275° West 481 554 36,000  Level FlightAware
12:34PM 46.7460 -58.5830 275° West 482 555 36,000  Level FlightAware
12:35PM 46.7530 -58.7130 275° West 483 556 36,000  Level FlightAware
12:36PM 46.7600 -58.8530 274° West 483 556 36,000  Level FlightAware
12:36PM 46.7670 -58.9840 275° West 483 556 36,000  Level FlightAware
12:37PM 46.7750 -59.1350 274° West 483 556 36,000  Level FlightAware
12:38PM 46.7810 -59.2640 274° West 483 556 36,000  Level FlightAware
12:39PM 46.7880 -59.4080 274° West 483 556 36,000  Level FlightAware
12:39PM 46.7940 -59.5360 274° West 483 556 36,000  Level FlightAware
12:40PM 46.8000 -59.6680 274° West 482 555 36,000  Level FlightAware
12:41PM 46.8060 -59.8110 274° West 482 555 36,000  Level FlightAware
12:41PM 46.8120 -59.9430 274° West 481 554 36,000  Level FlightAware
12:42PM 46.8180 -60.0920 273° West 481 554 36,000  Level FlightAware
12:43PM 46.8230 -60.2200 273° West 481 554 36,000  Level FlightAware
12:43PM 46.8280 -60.3490 273° West 481 554 36,000  Level FlightAware
12:44PM 46.8330 -60.4920 273° West 482 555 36,000  Level FlightAware
12:45PM 46.8380 -60.6190 273° West 483 556 36,000  Level FlightAware
12:46PM 46.8440 -60.7720 273° West 484 557 36,000  Level FlightAware
12:46PM 46.8480 -60.9020 273° West 485 558 36,000  Level FlightAware
12:47PM 46.8520 -61.0330 273° West 487 560 36,000  Level FlightAware
12:48PM 46.8560 -61.2030 272° West 488 562 36,000  Level FlightAware
12:49PM 46.8590 -61.3150 272° West 488 562 36,000  Level FlightAware
12:49PM 46.8620 -61.4270 272° West 488 562 36,000  Level FlightAware
12:50PM 46.8650 -61.5670 272° West 488 562 36,000  Level FlightAware
12:51PM 46.8680 -61.6800 272° West 488 562 36,000  Level FlightAware
12:51PM 46.8700 -61.7920 272° West 488 562 36,000  Level FlightAware
12:52PM 46.8730 -61.9040 272° West 488 562 36,000  Level FlightAware
12:53PM 46.8820 -62.1810 273° West 485 558 36,000  Level FlightAware
12:54PM 46.8840 -62.3200 271° West 484 557 36,000  Level FlightAware
12:54PM 46.8860 -62.4320 272° West 484 557 36,000  Level FlightAware
12:55PM 46.8870 -62.5430 271° West 484 557 36,000  Level FlightAware
12:56PM 46.8880 -62.6550 271° West 484 557 36,000  Level FlightAware
12:56PM 46.8900 -62.7660 272° West 484 557 36,000  Level FlightAware
12:57PM 46.8910 -62.9050 271° West 484 557 36,000  Level FlightAware
12:58PM 46.8920 -63.0170 271° West 484 557 36,000  Level FlightAware
12:58PM 46.8940 -63.1280 272° West 484 557 36,000  Level FlightAware
12:59PM 46.8950 -63.2390 271° West 484 557 36,000  Level FlightAware
01:00PM 46.8960 -63.3510 271° West 484 557 36,000  Level FlightAware
01:00PM 46.8980 -63.4620 272° West 484 557 36,000  Level FlightAware
01:01PM 46.8990 -63.6010 271° West 484 557 36,000  Level FlightAware
01:02PM 46.9010 -63.7130 272° West 484 557 36,000  Level FlightAware
01:03PM 46.9020 -63.8240 271° West 484 557 36,000  Level FlightAware
01:03PM 46.9072 -64.1489 271° West 490 564 36,000  Level Boston Center
01:04PM 46.8833 -64.2667 254° West 480 552 36,000  Level Moncton Center
01:05PM 46.8833 -64.4667 270° West 480 552 36,000  Level Moncton Center
01:06PM 46.8833 -64.6667 270° West 480 552 36,000  Level Moncton Center
01:07PM 46.8833 -64.8333 270° West 480 552 36,000  Level Moncton Center
01:08PM 46.8833 -65.0500 270° West 480 552 36,000  Level Moncton Center
01:09PM 46.8833 -65.2333 270° West 480 552 36,000  Level Moncton Center
01:10PM 46.8667 -65.4500 264° West 480 552 36,000  Level Moncton Center
01:11PM 46.8667 -65.6500 270° West 490 564 36,000  Level Moncton Center
01:12PM 46.8833 -65.8500 277° West 480 552 36,000  Level Moncton Center
01:13PM 46.8833 -66.0333 270° West 480 552 36,000  Level Moncton Center
01:14PM 46.8833 -66.2333 270° West 480 552 36,000  Level Moncton Center
01:15PM 46.8833 -66.4333 270° West 480 552 36,000  Level Moncton Center
01:16PM 46.8667 -66.6333 263° West 490 564 36,000  Level Moncton Center
01:22PM 46.8840 -67.8770 263° West 488 562 36,000  Level FlightAware
01:23PM 46.8850 -68.0560 271° West 487 560 36,000  Level FlightAware
01:23PM 46.8850 -68.1670 270° West 486 559 36,000  Level FlightAware
01:24PM 46.8860 -68.3390 271° West 485 558 36,000  Level FlightAware
01:25PM 46.8860 -68.4560 270° West 484 557 36,000  Level FlightAware
01:26PM 46.8860 -68.6430 270° West 482 555 36,000  Level FlightAware
01:26PM 46.8860 -68.7720 270° West 481 554 36,000  Level FlightAware
01:27PM 46.8831 -68.8683 270° West 491 565 36,000  Level Boston Center
01:28PM 46.8825 -69.0686 270° West 491 565 36,000  Level Boston Center
01:29PM 46.8800 -69.2783 269° West 484 557 36,000  Level Boston Center
01:30PM 46.8811 -69.4756 271° West 484 557 36,000  Level Boston Center
01:31PM 46.8833 -69.5333 273° West 480 552 36,000  Level Montreal Center
01:32PM 46.8667 -69.7333 263° West 480 552 36,000  Level Montreal Center
01:33PM 46.8667 -69.9333 270° West 480 552 36,000  Level Montreal Center
01:34PM 46.8500 -70.1333 263° West 480 552 36,000  Level Montreal Center
01:35PM 46.8167 -70.3167 255° West 490 564 36,000  Level Montreal Center
01:36PM 46.8000 -70.5167 263° West 490 564 36,000  Level Montreal Center
01:37PM 46.7667 -70.7000 255° West 480 552 36,000  Level Montreal Center
01:38PM 46.7500 -70.9167 264° West 480 552 36,000  Level Montreal Center
01:39PM 46.7167 -71.1000 255° West 480 552 36,000  Level Montreal Center
01:40PM 46.7000 -71.3000 263° West 480 552 36,000  Level Montreal Center
01:41PM 46.6667 -71.4833 255° West 480 552 36,000  Level Montreal Center
01:42PM 46.6500 -71.6833 263° West 480 552 36,000  Level Montreal Center
01:43PM 46.6167 -71.8667 255° West 480 552 36,000  Level Montreal Center
01:44PM 46.6000 -72.0667 263° West 480 552 36,000  Level Montreal Center
01:45PM 46.5833 -72.2500 263° West 480 552 36,000  Level Montreal Center
01:46PM 46.5500 -72.4500 256° West 470 541 36,000  Level Montreal Center
01:47PM 46.5333 -72.6333 263° West 470 541 36,000  Level Montreal Center
01:48PM 46.5000 -72.8167 255° West 470 541 36,000  Level Montreal Center
01:53PM 46.3710 -73.8560 255° West 462 532 36,000  Level FlightAware
01:54PM 46.3530 -73.9760 258° West 462 532 36,000  Level FlightAware
01:54PM 46.3320 -74.1160 258° West 461 531 36,000  Level FlightAware
01:55PM 46.3140 -74.2330 257° West 461 531 36,000  Level FlightAware
01:56PM 46.2950 -74.3550 257° West 461 531 36,000  Level FlightAware
01:56PM 46.2810 -74.4470 258° West 461 531 36,000  Level FlightAware
01:57PM 46.2490 -74.6480 257° West 462 532 36,000  Level FlightAware
01:58PM 46.2320 -74.7580 257° West 461 531 36,000  Level FlightAware
01:59PM 46.2140 -74.8660 256° West 461 531 36,000  Level FlightAware
02:00PM 46.1910 -75.0110 257° West 462 532 36,000  Level FlightAware
02:00PM 46.1730 -75.1230 257° West 462 532 36,000  Level FlightAware
02:01PM 46.1490 -75.2670 257° West 462 532 36,000  Level FlightAware
02:02PM 46.1290 -75.3920 257° West 462 532 36,000  Level FlightAware
02:02PM 46.1080 -75.5160 256° West 462 532 36,000  Level FlightAware
02:03PM 46.0850 -75.6530 256° West 463 533 36,000  Level FlightAware
02:04PM 46.0680 -75.7540 256° West 464 534 36,000  Level FlightAware
02:04PM 46.0420 -75.9070 256° West 464 534 36,000  Level FlightAware
02:05PM 46.0220 -76.0270 257° West 463 533 36,000  Level FlightAware
02:06PM 45.9980 -76.1650 256° West 461 531 36,000  Level FlightAware
02:07PM 45.9780 -76.2810 256° West 461 531 36,000  Level FlightAware
02:07PM 45.9580 -76.3940 256° West 461 531 36,000  Level FlightAware
02:08PM 45.9340 -76.5310 256° West 460 529 36,000  Level FlightAware
02:09PM 45.9170 -76.6260 256° West 459 528 36,000  Level FlightAware
02:09PM 45.8900 -76.7730 255° West 458 527 36,000  Level FlightAware
02:10PM 45.8700 -76.8830 255° West 458 527 36,000  Level FlightAware
02:11PM 45.8490 -77.0030 256° West 458 527 36,000  Level FlightAware
02:11PM 45.8240 -77.1370 255° West 460 529 36,000  Level FlightAware
02:12PM 45.8020 -77.2570 255° West 461 531 36,000  Level FlightAware
02:13PM 45.7800 -77.3770 255° West 461 531 36,000  Level FlightAware
02:14PM 45.7550 -77.5090 255° West 462 532 36,000  Level FlightAware
02:14PM 45.7320 -77.6270 254° West 463 533 36,000  Level FlightAware
02:15PM 45.7080 -77.7590 255° West 465 535 36,000  Level FlightAware
02:16PM 45.6850 -77.8790 255° West 465 535 36,000  Level FlightAware
02:16PM 45.6590 -78.0120 254° West 465 535 36,000  Level FlightAware
02:17PM 45.6370 -78.1260 255° West 467 537 36,000  Level FlightAware
02:18PM 45.6130 -78.2510 255° West 466 536 36,000  Level FlightAware
02:18PM 45.5870 -78.3830 254° West 466 536 36,000  Level FlightAware
02:19PM 45.5630 -78.5010 254° West 465 535 36,000  Level FlightAware
02:20PM 45.5380 -78.6300 255° West 465 535 36,000  Level FlightAware
02:21PM 45.5150 -78.7440 254° West 463 533 36,000  Level FlightAware
02:21PM 45.4910 -78.8610 254° West 463 533 36,000  Level FlightAware
02:22PM 45.4640 -78.9920 254° West 462 532 36,000  Level FlightAware
02:23PM 45.4390 -79.1160 254° West 462 532 36,000  Level FlightAware
02:23PM 45.4150 -79.2320 254° West 462 532 36,000  Level FlightAware
02:24PM 45.3890 -79.3580 254° West 463 533 36,000  Level FlightAware
02:25PM 45.3640 -79.4800 254° West 463 533 36,000  Level FlightAware
02:25PM 45.3360 -79.6120 253° West 465 535 36,000  Level FlightAware
02:26PM 45.3120 -79.7280 254° West 464 534 36,000  Level FlightAware
02:27PM 45.2880 -79.8420 253° West 465 535 36,000  Level FlightAware
02:28PM 45.2610 -79.9710 253° West 465 535 36,000  Level FlightAware
02:28PM 45.2340 -80.0930 253° West 466 536 36,000  Level FlightAware
02:29PM 45.2090 -80.2100 253° West 466 536 36,000  Level FlightAware
02:30PM 45.1810 -80.3380 253° West 467 537 36,000  Level FlightAware
02:30PM 45.1550 -80.4580 253° West 466 536 36,000  Level FlightAware
02:31PM 45.1280 -80.5800 253° West 466 536 36,000  Level FlightAware
02:32PM 45.1010 -80.7020 253° West 466 536 36,000  Level FlightAware
02:32PM 45.0720 -80.8320 253° West 467 537 36,000  Level FlightAware
02:33PM 45.0460 -80.9500 253° West 467 537 36,000  Level FlightAware
02:34PM 45.0200 -81.0680 253° West 466 536 36,000  Level FlightAware
02:35PM 44.9900 -81.1990 252° West 466 536 36,000  Level FlightAware
02:35PM 44.9640 -81.3130 252° West 465 535 36,000  Level FlightAware
02:36PM 44.9390 -81.4240 252° West 465 535 36,000  Level FlightAware
02:37PM 44.8910 -81.6340 252° West 463 533 36,000  Level FlightAware
02:38PM 44.8490 -81.8130 252° West 463 533 36,000  Level FlightAware
02:39PM 44.8210 -81.9360 252° West 464 534 36,000  Level FlightAware
02:40PM 44.7800 -82.1100 252° West 465 535 36,000  Level FlightAware
02:41PM 44.7460 -82.2530 252° West 466 536 36,000  Level FlightAware
02:41PM 44.7220 -82.3550 252° West 467 537 36,000  Level FlightAware
02:42PM 44.6910 -82.4830 251° West 467 537 36,000  Level FlightAware
02:43PM 44.6590 -82.6160 251° West 467 537 36,000  Level FlightAware
02:43PM 44.6310 -82.7290 251° West 466 536 36,000  Level FlightAware
02:44PM 44.5920 -82.8520 246° West 466 536 36,000  Level FlightAware
02:45PM 44.5540 -82.9610 244° Southwest 465 535 36,000  Level FlightAware
02:46PM 44.5110 -83.0830 244° Southwest 466 536 36,000  Level FlightAware
02:46PM 44.4730 -83.1860 243° Southwest 466 536 36,000  Level FlightAware
02:47PM 44.4320 -83.2980 243° Southwest 466 536 36,000  Level FlightAware
02:48PM 44.3940 -83.4040 243° Southwest 466 536 36,000  Level FlightAware
02:48PM 44.3510 -83.5240 243° Southwest 466 536 36,000  Level FlightAware
02:49PM 44.3130 -83.6280 243° Southwest 466 536 36,000  Level FlightAware
02:50PM 44.2680 -83.7530 243° Southwest 466 536 36,000  Level FlightAware
02:50PM 44.2300 -83.8560 243° Southwest 465 535 36,000  Level FlightAware
02:51PM 44.1890 -83.9680 243° Southwest 466 536 36,000  Level FlightAware
02:52PM 44.1400 -84.0990 243° Southwest 466 536 36,000  Level FlightAware
02:53PM 44.1010 -84.2050 243° Southwest 465 535 36,000  Level FlightAware
02:53PM 44.0610 -84.3120 243° Southwest 465 535 36,000  Level FlightAware
02:54PM 44.0210 -84.4190 243° Southwest 465 535 36,000  Level FlightAware
02:55PM 43.9820 -84.5230 243° Southwest 465 535 36,000  Level FlightAware
02:55PM 43.9320 -84.6560 242° Southwest 467 537 36,000 -480 Level FlightAware
02:56PM 43.8920 -84.7610 242° Southwest 467 537 35,300 -1,080 Descending FlightAware
02:57PM 43.8540 -84.8610 242° Southwest 453 521 34,600 -1,080 Descending FlightAware
02:57PM 43.8090 -84.9780 242° Southwest 446 513 33,800 -1,140 Descending FlightAware
02:58PM 43.7740 -85.0690 242° Southwest 441 507 33,100 -1,140 Descending FlightAware
02:59PM 43.7330 -85.1760 242° Southwest 433 498 32,300 -1,140 Descending FlightAware
02:59PM 43.7120 -85.2100 229° Southwest 423 487 32,000 -360 Descending FlightAware
03:00PM 43.6530 -85.2810 221° Southwest 421 484 32,000 -120 Level FlightAware
03:00PM 43.5980 -85.3700 230° Southwest 423 487 31,900 -540 Descending FlightAware
03:01PM 43.5470 -85.4520 229° Southwest 432 497 31,300 -900 Descending FlightAware
03:02PM 43.4890 -85.5460 230° Southwest 433 498 30,700 -900 Descending FlightAware
03:03PM 43.4340 -85.6340 229° Southwest 459 528 30,100 -900 Descending FlightAware
03:03PM 43.3790 -85.7210 229° Southwest 454 522 29,500 -960 Descending FlightAware
03:04PM 43.3200 -85.8150 229° Southwest 446 513 28,800 -1,020 Descending FlightAware
03:05PM 43.2670 -85.8990 229° Southwest 448 516 28,100 -1,200 Descending FlightAware
03:05PM 43.2090 -85.9900 229° Southwest 443 510 27,100 -1,500 Descending FlightAware
03:06PM 43.1510 -86.0810 229° Southwest 426 490 26,000 -1,560 Descending FlightAware
03:07PM 43.0960 -86.1670 229° Southwest 418 481 24,900 -1,500 Descending FlightAware
03:07PM 43.0420 -86.2510 229° Southwest 413 475 23,900 -1,500 Descending FlightAware
03:08PM 42.9930 -86.3280 229° Southwest 406 467 22,900 -1,500 Descending FlightAware
03:09PM 42.9200 -86.4420 229° Southwest 405 466 21,400 -1,680 Descending FlightAware
03:10PM 42.8730 -86.5260 233° Southwest 410 472 20,100 -1,920 Descending FlightAware
03:10PM 42.8290 -86.6070 233° Southwest 397 457 18,900 -1,980 Descending FlightAware
03:11PM 42.7790 -86.6960 233° Southwest 387 445 17,300 -2,220 Descending FlightAware
03:12PM 42.7370 -86.7710 233° Southwest 378 435 15,800 -2,340 Descending FlightAware
03:13PM 42.6940 -86.8470 232° Southwest 372 428 14,200 -2,340 Descending FlightAware
03:13PM 42.6500 -86.9240 232° Southwest 370 426 12,500 -2,280 Descending FlightAware
03:14PM 42.6060 -87.0010 232° Southwest 360 414 11,000 -1,800 Descending FlightAware
03:15PM 42.5600 -87.0820 232° Southwest 355 409 10,000 -1,020 Descending FlightAware
03:15PM 42.5450 -87.1070 231° Southwest 348 400 10,000  Level FlightAware
03:15PM 42.5200 -87.1500 232° Southwest 353 406 10,000  Level FlightAware
03:16PM 42.4920 -87.2000 233° Southwest 376 433 10,000  Level FlightAware
03:16PM 42.4570 -87.2620 233° Southwest 377 434 10,000 -120 Level FlightAware
03:17PM 42.4320 -87.3070 233° Southwest 379 436 9,900  Descending FlightAware
03:17PM 42.4110 -87.3620 243° Southwest 383 441 10,000  Climbing FlightAware
03:18PM 42.3990 -87.4060 250° West 381 438 9,900  Descending FlightAware
03:18PM 42.3820 -87.4650 249° West 384 442 10,000  Climbing FlightAware
03:18PM 42.3740 -87.4940 250° West 383 441 9,900  Descending FlightAware
03:19PM 42.3510 -87.5450 239° Southwest 375 432 10,000 60 Climbing FlightAware
03:19PM 42.3110 -87.5920 221° Southwest 373 429 10,000 -120 Level FlightAware
03:20PM 42.2780 -87.6270 218° Southwest 373 429 9,900  Descending FlightAware
03:20PM 42.2380 -87.6690 218° Southwest 366 421 10,000 60 Climbing FlightAware
03:21PM 42.1970 -87.7110 217° Southwest 363 418 10,000  Level FlightAware
03:22PM 42.1350 -87.8010 227° Southwest 308 354 10,000 -240 Level FlightAware
03:22PM 42.1250 -87.8460 253° West 297 342 9,700 -960 Descending FlightAware
03:22PM 42.1150 -87.8890 253° West 294 338 9,200 -1,320 Descending FlightAware
03:23PM 42.1030 -87.9420 253° West 291 335 8,500 -1,440 Descending FlightAware
03:23PM 42.0930 -87.9910 255° West 288 331 7,800 -1,920 Descending FlightAware
03:24PM 42.0880 -88.0450 263° West 284 327 6,600 -2,520 Descending FlightAware
03:24PM 42.0830 -88.0910 262° West 279 321 5,500 -2,400 Descending FlightAware
03:25PM 42.0760 -88.1350 258° West 272 313 4,400 -1,980 Descending FlightAware
03:25PM 42.0700 -88.1460 234° Southwest 258 297 4,200 -960 Descending FlightAware
03:25PM 42.0520 -88.1580 206° Southwest 222 255 4,000 -720 Descending FlightAware
03:26PM 42.0320 -88.1600 184° South 205 236 3,800 -1,200 Descending FlightAware
03:26PM 42.0140 -88.1470 152° Southeast 190 219 3,100 -1,500 Descending FlightAware
03:26PM 42.0070 -88.1300 119° Southeast 182 209 2,800 -900 Descending FlightAware
03:27PM 41.9970 -88.1060 119° Southeast 171 197 2,500 -360 Descending FlightAware
03:27PM 41.9910 -88.0750 105° East 169 194 2,500 -120 Level FlightAware
03:28PM 41.9920 -88.0500 87° East 168 193 2,400 -660 Descending FlightAware
03:28PM 41.9920 -88.0200 90° East 146 168 1,900 -900 Descending FlightAware
03:28PM 41.9920 -87.9990 90° East 131 151 1,600 -660 Descending FlightAware
03:29PM 41.9920 -87.9730 90° East 137 158 1,300 -720 Descending FlightAware
03:29PM 41.9920 -87.9620 90° East 131 151 1,100 -720 Descending FlightAware
03:30PM 41.9930 -87.9370 87° East 132 152 800 -600 Descending FlightAware